createdAt,value
2022-09-20T00:00:36.173Z,0.00
2022-09-20T00:01:36.236Z,0.00
2022-09-20T00:02:36.183Z,0.00
2022-09-20T00:03:36.147Z,0.00
2022-09-20T00:04:36.187Z,0.00
2022-09-20T00:05:36.149Z,0.00
2022-09-20T00:06:36.167Z,0.00
2022-09-20T00:07:36.186Z,0.00
2022-09-20T00:08:36.101Z,0.00
2022-09-20T00:09:36.094Z,0.00
2022-09-20T00:10:36.106Z,0.00
2022-09-20T00:11:36.099Z,0.00
2022-09-20T00:12:36.310Z,0.00
2022-09-20T00:13:36.102Z,0.00
2022-09-20T00:14:36.490Z,0.00
2022-09-20T00:15:36.067Z,0.00
2022-09-20T00:16:36.198Z,0.00
2022-09-20T00:17:36.042Z,0.00
2022-09-20T00:18:36.049Z,0.00
2022-09-20T00:19:36.057Z,0.00
2022-09-20T00:20:36.019Z,0.00
2022-09-20T00:21:36.051Z,0.00
2022-09-20T00:22:36.008Z,0.00
2022-09-20T00:23:36.042Z,0.00
2022-09-20T00:24:36.022Z,0.00
2022-09-20T00:25:36.018Z,0.00
2022-09-20T00:26:35.986Z,0.00
2022-09-20T00:27:36.040Z,0.00
2022-09-20T00:28:35.976Z,0.00
2022-09-20T00:29:35.966Z,0.00
2022-09-20T00:30:35.978Z,0.00
2022-09-20T00:31:35.987Z,0.00
2022-09-20T00:32:35.948Z,0.00
2022-09-20T00:33:35.945Z,0.00
2022-09-20T00:34:35.927Z,0.00
2022-09-20T00:35:35.922Z,0.00
2022-09-20T00:36:35.937Z,0.00
2022-09-20T00:37:36.004Z,0.00
2022-09-20T00:38:35.903Z,0.00
2022-09-20T00:39:35.910Z,0.00
2022-09-20T00:40:35.980Z,0.00
2022-09-20T00:41:35.881Z,0.00
2022-09-20T00:42:35.924Z,0.00
2022-09-20T00:43:35.865Z,0.00
2022-09-20T00:44:35.872Z,0.00
2022-09-20T00:45:35.929Z,0.00
2022-09-20T00:46:35.900Z,0.00
2022-09-20T00:47:36.021Z,0.00
2022-09-20T00:48:35.850Z,0.00
2022-09-20T00:49:35.832Z,0.00
2022-09-20T00:50:36.343Z,0.00
2022-09-20T00:51:35.831Z,0.00
2022-09-20T00:52:35.806Z,0.00
2022-09-20T00:53:35.822Z,0.00
2022-09-20T00:54:35.816Z,0.00
2022-09-20T00:55:35.809Z,0.00
2022-09-20T00:56:35.790Z,0.00
2022-09-20T00:57:35.764Z,0.00
2022-09-20T00:58:35.773Z,0.00
2022-09-20T00:59:35.757Z,0.00
2022-09-20T01:00:35.756Z,0.00
2022-09-20T01:01:35.811Z,0.00
2022-09-20T01:02:35.815Z,0.00
2022-09-20T01:03:35.731Z,0.00
2022-09-20T01:04:35.798Z,0.00
2022-09-20T01:05:35.744Z,0.00
2022-09-20T01:06:35.709Z,0.00
2022-09-20T01:07:35.730Z,0.00
2022-09-20T01:08:35.706Z,0.00
2022-09-20T01:09:35.711Z,0.00
2022-09-20T01:10:35.681Z,0.00
2022-09-20T01:11:35.674Z,0.00
2022-09-20T01:12:36.119Z,0.00
2022-09-20T01:13:35.692Z,0.00
2022-09-20T01:14:35.695Z,0.00
2022-09-20T01:15:35.640Z,0.00
2022-09-20T01:16:35.739Z,0.00
2022-09-20T01:17:35.650Z,0.00
2022-09-20T01:18:35.624Z,0.00
2022-09-20T01:19:35.620Z,0.00
2022-09-20T01:20:35.611Z,0.00
2022-09-20T01:21:35.606Z,0.00
2022-09-20T01:22:35.598Z,0.00
2022-09-20T01:23:35.616Z,0.00
2022-09-20T01:24:35.592Z,0.00
2022-09-20T01:25:35.603Z,0.00
2022-09-20T01:26:35.603Z,0.00
2022-09-20T01:27:35.567Z,0.00
2022-09-20T01:28:36.434Z,0.00
2022-09-20T01:29:35.543Z,0.00
2022-09-20T01:30:35.557Z,0.00
2022-09-20T01:31:35.596Z,0.00
2022-09-20T01:32:36.530Z,0.00
2022-09-20T01:33:35.530Z,0.00
2022-09-20T01:34:35.519Z,0.00
2022-09-20T01:35:35.536Z,0.00
2022-09-20T01:36:35.504Z,0.00
2022-09-20T01:37:35.505Z,0.00
2022-09-20T01:38:35.516Z,0.00
2022-09-20T01:39:35.483Z,0.00
2022-09-20T01:40:35.593Z,0.00
2022-09-20T01:41:35.493Z,0.00
2022-09-20T01:42:35.491Z,0.00
2022-09-20T01:43:35.471Z,0.00
2022-09-20T01:44:35.465Z,0.00
2022-09-20T01:45:35.513Z,0.00
2022-09-20T01:46:35.504Z,0.00
2022-09-20T01:47:35.463Z,0.00
2022-09-20T01:48:35.416Z,0.00
2022-09-20T01:49:35.494Z,0.00
2022-09-20T01:50:35.431Z,0.00
2022-09-20T01:51:35.415Z,0.00
2022-09-20T01:52:35.399Z,0.00
2022-09-20T01:53:35.394Z,0.00
2022-09-20T01:54:35.389Z,0.00
2022-09-20T01:55:35.389Z,0.00
2022-09-20T01:56:35.384Z,0.00
2022-09-20T01:57:35.407Z,0.00
2022-09-20T01:58:35.378Z,0.00
2022-09-20T01:59:35.340Z,0.00
2022-09-20T02:00:35.368Z,0.00
2022-09-20T02:01:36.118Z,0.00
2022-09-20T02:02:35.481Z,0.00
2022-09-20T02:03:35.329Z,0.00
2022-09-20T02:04:35.329Z,0.00
2022-09-20T02:05:35.328Z,0.00
2022-09-20T02:06:35.331Z,0.00
2022-09-20T02:07:35.318Z,0.00
2022-09-20T02:08:35.362Z,0.00
2022-09-20T02:09:35.281Z,0.00
2022-09-20T02:10:35.332Z,0.00
2022-09-20T02:11:35.262Z,0.00
2022-09-20T02:12:35.290Z,0.00
2022-09-20T02:13:35.981Z,0.00
2022-09-20T02:14:35.249Z,0.00
2022-09-20T02:15:35.265Z,0.00
2022-09-20T02:16:35.330Z,0.00
2022-09-20T02:17:35.261Z,0.00
2022-09-20T02:18:35.247Z,0.00
2022-09-20T02:19:35.262Z,0.00
2022-09-20T02:20:35.221Z,0.00
2022-09-20T02:21:35.294Z,0.00
2022-09-20T02:22:35.236Z,0.00
2022-09-20T02:23:35.187Z,0.00
2022-09-20T02:24:35.253Z,0.00
2022-09-20T02:25:35.210Z,0.00
2022-09-20T02:26:35.218Z,0.00
2022-09-20T02:27:35.181Z,0.00
2022-09-20T02:28:35.203Z,0.00
2022-09-20T02:29:35.262Z,0.00
2022-09-20T02:30:35.165Z,0.00
2022-09-20T02:31:35.231Z,0.00
2022-09-20T02:32:35.129Z,0.00
2022-09-20T02:33:35.912Z,0.00
2022-09-20T02:34:35.104Z,0.00
2022-09-20T02:35:36.141Z,0.00
2022-09-20T02:36:35.106Z,0.00
2022-09-20T02:37:35.099Z,0.00
2022-09-20T02:38:35.085Z,0.00
2022-09-20T02:39:35.089Z,0.00
2022-09-20T02:40:35.178Z,0.00
2022-09-20T02:41:35.071Z,0.00
2022-09-20T02:42:35.095Z,0.00
2022-09-20T02:43:35.111Z,0.00
2022-09-20T02:44:35.061Z,0.00
2022-09-20T02:45:35.234Z,0.00
2022-09-20T02:46:35.028Z,0.00
2022-09-20T02:47:35.032Z,0.00
2022-09-20T02:48:35.068Z,0.00
2022-09-20T02:49:35.001Z,0.00
2022-09-20T02:50:35.031Z,0.00
2022-09-20T02:51:35.142Z,0.00
2022-09-20T02:52:35.176Z,0.00
2022-09-20T02:53:35.048Z,0.00
2022-09-20T02:54:34.987Z,0.00
2022-09-20T02:55:34.955Z,0.00
2022-09-20T02:56:34.958Z,0.00
2022-09-20T02:57:34.946Z,0.00
2022-09-20T02:58:36.242Z,0.00
2022-09-20T02:59:34.934Z,0.00
2022-09-20T03:00:34.919Z,0.00
2022-09-20T03:01:35.044Z,0.00
2022-09-20T03:02:35.019Z,0.00
2022-09-20T03:03:34.898Z,0.00
2022-09-20T03:04:34.919Z,0.00
2022-09-20T03:05:34.891Z,0.00
2022-09-20T03:06:34.924Z,0.00
2022-09-20T03:07:34.908Z,0.00
2022-09-20T03:08:34.889Z,0.00
2022-09-20T03:09:34.866Z,0.00
2022-09-20T03:10:34.939Z,0.00
2022-09-20T03:11:34.866Z,0.00
2022-09-20T03:12:34.846Z,0.00
2022-09-20T03:13:34.841Z,0.00
2022-09-20T03:14:34.949Z,0.00
2022-09-20T03:15:34.892Z,0.00
2022-09-20T03:16:34.923Z,0.00
2022-09-20T03:17:34.845Z,0.00
2022-09-20T03:18:34.791Z,0.00
2022-09-20T03:19:34.806Z,0.00
2022-09-20T03:20:34.909Z,0.00
2022-09-20T03:21:34.788Z,0.00
2022-09-20T03:22:34.846Z,0.00
2022-09-20T03:23:35.279Z,0.00
2022-09-20T03:24:34.831Z,0.00
2022-09-20T03:25:34.756Z,0.00
2022-09-20T03:26:34.787Z,0.00
2022-09-20T03:27:34.753Z,0.00
2022-09-20T03:28:35.162Z,0.00
2022-09-20T03:29:34.719Z,0.00
2022-09-20T03:30:34.717Z,0.00
2022-09-20T03:31:34.817Z,0.00
2022-09-20T03:32:34.733Z,0.00
2022-09-20T03:33:34.721Z,0.00
2022-09-20T03:34:34.807Z,0.00
2022-09-20T03:35:34.681Z,0.00
2022-09-20T03:36:34.670Z,0.00
2022-09-20T03:37:34.711Z,0.00
2022-09-20T03:38:34.679Z,0.00
2022-09-20T03:39:34.651Z,0.00
2022-09-20T03:40:34.741Z,0.00
2022-09-20T03:41:34.674Z,0.00
2022-09-20T03:42:34.652Z,0.00
2022-09-20T03:43:34.645Z,0.00
2022-09-20T03:44:34.669Z,0.00
2022-09-20T03:45:34.803Z,0.00
2022-09-20T03:46:34.606Z,0.00
2022-09-20T03:47:34.598Z,0.00
2022-09-20T03:48:34.593Z,0.00
2022-09-20T03:49:34.610Z,0.00
2022-09-20T03:50:34.572Z,0.00
2022-09-20T03:51:35.055Z,0.00
2022-09-20T03:52:34.556Z,0.00
2022-09-20T03:53:34.559Z,0.00
2022-09-20T03:54:34.566Z,0.00
2022-09-20T03:55:34.537Z,0.00
2022-09-20T03:56:34.552Z,0.00
2022-09-20T03:57:35.162Z,0.00
2022-09-20T03:58:34.522Z,0.00
2022-09-20T03:59:34.637Z,0.00
2022-09-20T04:00:34.503Z,0.00
2022-09-20T04:01:34.592Z,0.00
2022-09-20T04:02:34.651Z,0.00
2022-09-20T04:03:34.485Z,0.00
2022-09-20T04:04:34.704Z,0.00
2022-09-20T04:05:34.492Z,0.00
2022-09-20T04:06:34.650Z,0.00
2022-09-20T04:07:34.464Z,0.00
2022-09-20T04:08:38.076Z,0.00
2022-09-20T04:09:35.478Z,0.00
2022-09-20T04:10:34.452Z,0.00
2022-09-20T04:11:34.440Z,0.00
2022-09-20T04:12:34.421Z,0.00
2022-09-20T04:13:34.443Z,0.00
2022-09-20T04:14:34.417Z,0.00
2022-09-20T04:15:35.807Z,0.00
2022-09-20T04:16:34.463Z,0.00
2022-09-20T04:17:34.391Z,0.00
2022-09-20T04:18:34.381Z,0.00
2022-09-20T04:19:34.381Z,0.00
2022-09-20T04:20:34.402Z,0.00
2022-09-20T04:21:34.395Z,0.00
2022-09-20T04:22:34.366Z,0.00
2022-09-20T04:23:34.359Z,0.00
2022-09-20T04:24:34.377Z,0.00
2022-09-20T04:25:34.344Z,0.00
2022-09-20T04:26:34.349Z,0.00
2022-09-20T04:27:34.349Z,0.00
2022-09-20T04:28:34.327Z,0.00
2022-09-20T04:29:34.316Z,0.00
2022-09-20T04:30:34.300Z,0.00
2022-09-20T04:31:55.385Z,0.00
2022-09-20T04:32:34.286Z,0.00
2022-09-20T04:33:34.289Z,0.00
2022-09-20T04:34:34.282Z,0.00
2022-09-20T04:35:34.273Z,0.00
2022-09-20T04:36:34.270Z,0.00
2022-09-20T04:37:34.306Z,0.00
2022-09-20T04:38:34.247Z,0.00
2022-09-20T04:39:34.253Z,0.00
2022-09-20T04:40:34.343Z,0.00
2022-09-20T04:41:34.233Z,0.00
2022-09-20T04:42:34.215Z,0.00
2022-09-20T04:43:34.230Z,0.00
2022-09-20T04:44:34.202Z,0.00
2022-09-20T04:45:34.279Z,0.00
2022-09-20T04:46:34.196Z,0.00
2022-09-20T04:47:34.282Z,0.00
2022-09-20T04:48:34.183Z,0.00
2022-09-20T04:49:34.181Z,0.00
2022-09-20T04:50:34.166Z,0.00
2022-09-20T04:51:34.162Z,0.00
2022-09-20T04:52:34.151Z,0.00
2022-09-20T04:53:35.873Z,0.00
2022-09-20T04:54:34.149Z,0.00
2022-09-20T04:55:34.190Z,0.00
2022-09-20T04:56:34.121Z,0.00
2022-09-20T04:57:34.122Z,0.00
2022-09-20T04:58:34.120Z,0.00
2022-09-20T04:59:34.114Z,0.00
2022-09-20T05:00:34.099Z,5.62
2022-09-20T05:01:34.150Z,5.62
2022-09-20T05:02:34.184Z,5.62
2022-09-20T05:03:34.079Z,5.62
2022-09-20T05:04:34.067Z,5.62
2022-09-20T05:05:34.428Z,5.62
2022-09-20T05:06:34.068Z,11.25
2022-09-20T05:07:34.069Z,11.25
2022-09-20T05:08:34.044Z,16.88
2022-09-20T05:09:34.049Z,16.88
2022-09-20T05:10:34.036Z,16.88
2022-09-20T05:11:34.027Z,16.88
2022-09-20T05:12:34.035Z,22.50
2022-09-20T05:13:34.021Z,22.50
2022-09-20T05:14:34.000Z,22.50
2022-09-20T05:15:34.428Z,28.12
2022-09-20T05:16:35.299Z,28.12
2022-09-20T05:17:33.989Z,28.12
2022-09-20T05:18:33.979Z,28.12
2022-09-20T05:19:33.973Z,33.75
2022-09-20T05:20:34.015Z,33.75
2022-09-20T05:21:33.964Z,33.75
2022-09-20T05:22:33.992Z,33.75
2022-09-20T05:23:33.951Z,39.38
2022-09-20T05:24:33.935Z,39.38
2022-09-20T05:25:33.957Z,39.38
2022-09-20T05:26:33.923Z,45.00
2022-09-20T05:27:33.920Z,45.00
2022-09-20T05:28:33.907Z,45.00
2022-09-20T05:29:33.937Z,50.62
2022-09-20T05:30:33.911Z,50.62
2022-09-20T05:31:34.019Z,56.25
2022-09-20T05:32:33.889Z,56.25
2022-09-20T05:33:33.865Z,56.25
2022-09-20T05:34:33.867Z,56.25
2022-09-20T05:35:33.855Z,56.25
2022-09-20T05:36:41.117Z,56.25
2022-09-20T05:37:33.849Z,56.25
2022-09-20T05:38:34.176Z,56.25
2022-09-20T05:39:33.840Z,50.62
2022-09-20T05:40:33.915Z,50.62
2022-09-20T05:41:33.870Z,45.00
2022-09-20T05:42:33.807Z,45.00
2022-09-20T05:43:33.828Z,45.00
2022-09-20T05:44:33.802Z,45.00
2022-09-20T05:45:34.761Z,45.00
2022-09-20T05:46:33.788Z,45.00
2022-09-20T05:47:33.807Z,39.38
2022-09-20T05:48:33.779Z,33.75
2022-09-20T05:49:33.779Z,33.75
2022-09-20T05:50:33.762Z,28.12
2022-09-20T05:51:33.761Z,28.12
2022-09-20T05:52:33.763Z,28.12
2022-09-20T05:53:33.782Z,28.12
2022-09-20T05:54:34.221Z,22.50
2022-09-20T05:55:33.754Z,22.50
2022-09-20T05:56:33.718Z,22.50
2022-09-20T05:57:33.740Z,22.50
2022-09-20T05:58:33.711Z,22.50
2022-09-20T05:59:33.731Z,28.12
2022-09-20T06:00:33.698Z,28.12
2022-09-20T06:01:33.741Z,28.12
2022-09-20T06:02:33.733Z,28.12
2022-09-20T06:03:33.720Z,28.12
2022-09-20T06:04:33.661Z,33.75
2022-09-20T06:05:34.112Z,39.38
2022-09-20T06:06:33.641Z,39.38
2022-09-20T06:07:33.671Z,39.38
2022-09-20T06:08:33.642Z,39.38
2022-09-20T06:09:34.060Z,33.75
2022-09-20T06:10:33.618Z,45.00
2022-09-20T06:11:33.661Z,50.62
2022-09-20T06:12:33.605Z,61.88
2022-09-20T06:13:33.621Z,67.50
2022-09-20T06:14:33.600Z,73.12
2022-09-20T06:15:34.147Z,61.88
2022-09-20T06:16:33.620Z,56.25
2022-09-20T06:17:33.568Z,50.62
2022-09-20T06:18:33.573Z,45.00
2022-09-20T06:19:33.554Z,50.62
2022-09-20T06:20:33.625Z,67.50
2022-09-20T06:21:33.535Z,73.12
2022-09-20T06:22:33.540Z,73.12
2022-09-20T06:23:33.526Z,90.00
2022-09-20T06:24:33.513Z,101.25
2022-09-20T06:25:33.514Z,112.50
2022-09-20T06:26:33.519Z,112.50
2022-09-20T06:27:33.496Z,112.50
2022-09-20T06:28:33.511Z,118.12
2022-09-20T06:29:33.535Z,123.75
2022-09-20T06:30:33.524Z,118.12
2022-09-20T06:31:33.470Z,112.50
2022-09-20T06:32:33.468Z,101.25
2022-09-20T06:33:33.464Z,106.88
2022-09-20T06:34:33.480Z,123.75
2022-09-20T06:35:33.443Z,118.12
2022-09-20T06:36:33.431Z,106.88
2022-09-20T06:37:33.449Z,101.25
2022-09-20T06:38:33.835Z,95.62
2022-09-20T06:39:33.459Z,101.25
2022-09-20T06:40:33.434Z,112.50
2022-09-20T06:41:33.395Z,129.38
2022-09-20T06:42:33.392Z,168.75
2022-09-20T06:43:33.388Z,196.88
2022-09-20T06:44:34.299Z,196.88
2022-09-20T06:45:33.478Z,151.88
2022-09-20T06:46:33.361Z,135.00
2022-09-20T06:47:38.532Z,140.62
2022-09-20T06:48:33.337Z,123.75
2022-09-20T06:49:33.337Z,112.50
2022-09-20T06:50:33.340Z,106.88
2022-09-20T06:51:33.340Z,112.50
2022-09-20T06:52:33.344Z,112.50
2022-09-20T06:53:33.313Z,112.50
2022-09-20T06:54:33.315Z,118.12
2022-09-20T06:55:33.313Z,135.00
2022-09-20T06:56:33.717Z,135.00
2022-09-20T06:57:33.283Z,140.62
2022-09-20T06:58:33.265Z,151.88
2022-09-20T06:59:33.275Z,185.62
2022-09-20T07:00:33.691Z,219.38
2022-09-20T07:01:33.322Z,292.50
2022-09-20T07:02:33.295Z,292.50
2022-09-20T07:03:33.257Z,270.00
2022-09-20T07:04:33.228Z,281.25
2022-09-20T07:05:33.238Z,360.00
2022-09-20T07:06:33.808Z,354.38
2022-09-20T07:07:33.224Z,298.12
2022-09-20T07:08:33.253Z,247.50
2022-09-20T07:09:33.195Z,213.75
2022-09-20T07:10:33.193Z,208.12
2022-09-20T07:11:33.775Z,208.12
2022-09-20T07:12:33.173Z,225.00
2022-09-20T07:13:33.169Z,208.12
2022-09-20T07:14:33.157Z,196.88
2022-09-20T07:15:33.164Z,185.62
2022-09-20T07:16:33.210Z,191.25
2022-09-20T07:17:33.165Z,236.25
2022-09-20T07:18:33.121Z,275.62
2022-09-20T07:19:33.152Z,371.25
2022-09-20T07:20:33.122Z,1350.00
2022-09-20T07:21:33.107Z,1288.12
2022-09-20T07:22:33.106Z,562.50
2022-09-20T07:23:33.102Z,585.00
2022-09-20T07:24:33.084Z,618.75
2022-09-20T07:25:33.097Z,585.00
2022-09-20T07:26:33.075Z,556.88
2022-09-20T07:27:33.066Z,545.62
2022-09-20T07:28:33.086Z,405.00
2022-09-20T07:29:33.056Z,376.88
2022-09-20T07:30:33.053Z,405.00
2022-09-20T07:31:33.066Z,461.25
2022-09-20T07:32:33.031Z,444.38
2022-09-20T07:33:33.056Z,354.38
2022-09-20T07:34:33.033Z,298.12
2022-09-20T07:35:33.012Z,264.38
2022-09-20T07:36:33.013Z,264.38
2022-09-20T07:37:36.998Z,247.50
2022-09-20T07:38:32.985Z,213.75
2022-09-20T07:39:32.994Z,208.12
2022-09-20T07:40:33.010Z,219.38
2022-09-20T07:41:33.012Z,196.88
2022-09-20T07:42:32.965Z,174.38
2022-09-20T07:43:32.973Z,180.00
2022-09-20T07:44:32.950Z,157.50
2022-09-20T07:45:32.989Z,163.12
2022-09-20T07:46:32.944Z,168.75
2022-09-20T07:47:32.932Z,157.50
2022-09-20T07:48:32.937Z,129.38
2022-09-20T07:49:33.779Z,118.12
2022-09-20T07:50:32.902Z,140.62
2022-09-20T07:51:32.907Z,168.75
2022-09-20T07:52:32.900Z,146.25
2022-09-20T07:53:32.885Z,118.12
2022-09-20T07:54:32.898Z,106.88
2022-09-20T07:55:32.878Z,118.12
2022-09-20T07:56:32.865Z,140.62
2022-09-20T07:57:32.865Z,163.12
2022-09-20T07:58:32.852Z,185.62
2022-09-20T07:59:32.865Z,219.38
2022-09-20T08:00:32.844Z,208.12
2022-09-20T08:01:32.866Z,236.25
2022-09-20T08:02:32.875Z,270.00
2022-09-20T08:03:32.821Z,331.88
2022-09-20T08:04:32.812Z,388.12
2022-09-20T08:05:33.490Z,461.25
2022-09-20T08:06:32.799Z,511.88
2022-09-20T08:07:32.788Z,483.75
2022-09-20T08:08:32.786Z,376.88
2022-09-20T08:09:33.195Z,320.62
2022-09-20T08:10:33.291Z,365.62
2022-09-20T08:11:32.761Z,450.00
2022-09-20T08:14:33.756Z,590.62
2022-09-20T08:15:32.732Z,399.38
2022-09-20T08:16:32.882Z,376.88
2022-09-20T08:17:32.740Z,382.50
2022-09-20T08:18:32.735Z,354.38
2022-09-20T08:19:33.748Z,275.62
2022-09-20T08:20:32.690Z,247.50
2022-09-20T08:21:32.719Z,264.38
2022-09-20T08:22:33.111Z,275.62
2022-09-20T08:23:32.679Z,343.12
2022-09-20T08:24:32.711Z,303.75
2022-09-20T08:25:32.670Z,236.25
2022-09-20T08:26:32.652Z,219.38
2022-09-20T08:27:32.670Z,236.25
2022-09-20T08:28:32.646Z,247.50
2022-09-20T08:29:32.639Z,230.62
2022-09-20T08:30:32.655Z,281.25
2022-09-20T08:31:33.502Z,315.00
2022-09-20T08:32:33.810Z,376.88
2022-09-20T08:33:32.651Z,410.62
2022-09-20T08:34:32.611Z,354.38
2022-09-20T08:35:32.603Z,253.12
2022-09-20T08:36:36.438Z,185.62
2022-09-20T08:37:33.206Z,180.00
2022-09-20T08:40:33.591Z,168.75
2022-09-20T08:41:32.578Z,292.50
2022-09-20T08:42:36.637Z,371.25
2022-09-20T08:43:33.585Z,326.25
2022-09-20T08:44:35.131Z,275.62
2022-09-20T08:45:34.754Z,281.25
2022-09-20T08:46:32.549Z,264.38
2022-09-20T08:47:32.932Z,320.62
2022-09-20T08:48:32.502Z,309.38
2022-09-20T08:49:32.500Z,382.50
2022-09-20T08:50:32.500Z,540.00
2022-09-20T08:51:32.486Z,551.25
2022-09-20T08:52:39.671Z,421.88
2022-09-20T08:53:33.608Z,270.00
2022-09-20T08:54:32.759Z,225.00
2022-09-20T08:55:37.990Z,241.88
2022-09-20T08:56:33.453Z,264.38
2022-09-20T08:57:32.477Z,326.25
2022-09-20T08:58:32.463Z,360.00
2022-09-20T08:59:32.473Z,382.50
2022-09-20T09:00:32.609Z,438.75
2022-09-20T09:01:32.487Z,416.25
2022-09-20T09:02:32.494Z,433.12
2022-09-20T09:03:32.431Z,348.75
2022-09-20T09:04:32.409Z,393.75
2022-09-20T09:05:32.398Z,551.25
2022-09-20T09:06:32.547Z,753.75
2022-09-20T09:07:32.383Z,2992.50
2022-09-20T09:08:37.680Z,2340.00
2022-09-20T09:09:37.621Z,2812.50
2022-09-20T09:10:32.433Z,2998.12
2022-09-20T09:11:32.377Z,2964.38
2022-09-20T09:12:32.358Z,2210.62
2022-09-20T09:13:32.345Z,1895.62
2022-09-20T09:14:32.338Z,2075.62
2022-09-20T09:15:32.335Z,1215.00
2022-09-20T09:16:35.496Z,821.25
2022-09-20T09:17:32.317Z,894.38
2022-09-20T09:18:32.298Z,978.75
2022-09-20T09:19:33.945Z,1648.12
2022-09-20T09:20:32.285Z,1490.62
2022-09-20T09:21:32.299Z,984.38
2022-09-20T09:22:32.274Z,849.38
2022-09-20T09:23:32.273Z,956.25
2022-09-20T09:24:32.258Z,2497.50
2022-09-20T09:25:32.340Z,1310.62
2022-09-20T09:26:32.323Z,2340.00
2022-09-20T09:27:32.252Z,1726.88
2022-09-20T09:28:32.238Z,2109.38
2022-09-20T09:29:34.845Z,1816.88
2022-09-20T09:30:32.219Z,1648.12
2022-09-20T09:31:32.249Z,973.12
2022-09-20T09:32:32.702Z,1192.50
2022-09-20T09:33:32.201Z,1378.12
2022-09-20T09:34:32.196Z,1181.25
2022-09-20T09:35:33.032Z,1288.12
2022-09-20T09:36:32.220Z,607.50
2022-09-20T09:37:32.166Z,691.88
2022-09-20T09:38:32.174Z,691.88
2022-09-20T09:39:32.853Z,1203.75
2022-09-20T09:40:32.731Z,1080.00
2022-09-20T09:41:32.740Z,590.62
2022-09-20T09:42:32.135Z,556.88
2022-09-20T09:43:32.135Z,630.00
2022-09-20T09:44:32.121Z,731.25
2022-09-20T09:45:32.267Z,714.38
2022-09-20T09:46:32.120Z,635.62
2022-09-20T09:47:32.551Z,545.62
2022-09-20T09:48:32.808Z,511.88
2022-09-20T09:49:32.083Z,461.25
2022-09-20T09:50:32.084Z,416.25
2022-09-20T09:51:32.077Z,354.38
2022-09-20T09:52:32.062Z,292.50
2022-09-20T09:53:32.065Z,236.25
2022-09-20T09:54:32.066Z,202.50
2022-09-20T09:55:32.055Z,174.38
2022-09-20T09:56:32.048Z,157.50
2022-09-20T09:57:32.062Z,135.00
2022-09-20T09:58:32.032Z,129.38
2022-09-20T09:59:32.057Z,118.12
2022-09-20T10:00:32.006Z,129.38
2022-09-20T10:01:33.500Z,174.38
2022-09-20T10:02:32.049Z,247.50
2022-09-20T10:03:32.024Z,326.25
2022-09-20T10:04:31.977Z,354.38
2022-09-20T10:05:32.073Z,360.00
2022-09-20T10:06:31.985Z,376.88
2022-09-20T10:07:31.950Z,405.00
2022-09-20T10:08:31.951Z,450.00
2022-09-20T10:09:31.937Z,472.50
2022-09-20T10:10:31.956Z,500.62
2022-09-20T10:11:31.929Z,534.38
2022-09-20T10:12:31.976Z,495.00
2022-09-20T10:13:31.938Z,500.62
2022-09-20T10:14:31.904Z,511.88
2022-09-20T10:15:31.889Z,556.88
2022-09-20T10:16:31.940Z,556.88
2022-09-20T10:17:32.788Z,607.50
2022-09-20T10:18:31.902Z,849.38
2022-09-20T10:19:31.898Z,4528.12
2022-09-20T10:20:31.854Z,4680.00
2022-09-20T10:21:31.861Z,3043.12
2022-09-20T10:22:31.867Z,4809.38
2022-09-20T10:24:01.484Z,4038.75
2022-09-20T10:24:32.861Z,1800.00
2022-09-20T10:25:31.825Z,1170.00
2022-09-20T10:26:31.823Z,2300.62
2022-09-20T10:27:32.495Z,2272.50
2022-09-20T10:28:31.808Z,2773.12
2022-09-20T10:29:31.851Z,675.00
2022-09-20T10:30:31.830Z,528.75
2022-09-20T10:31:31.863Z,438.75
2022-09-20T10:32:31.845Z,365.62
2022-09-20T10:33:31.820Z,337.50
2022-09-20T10:34:31.772Z,337.50
2022-09-20T10:35:31.769Z,337.50
2022-09-20T10:36:31.758Z,326.25
2022-09-20T10:37:31.743Z,320.62
2022-09-20T10:38:31.878Z,337.50
2022-09-20T10:39:31.732Z,382.50
2022-09-20T10:40:31.781Z,461.25
2022-09-20T10:41:31.744Z,596.25
2022-09-20T10:42:32.670Z,759.38
2022-09-20T10:43:31.699Z,888.75
2022-09-20T10:44:31.701Z,978.75
2022-09-20T10:46:03.388Z,1035.00
2022-09-20T10:46:33.565Z,1147.50
2022-09-20T10:47:31.820Z,1215.00
2022-09-20T10:48:31.664Z,1248.75
2022-09-20T10:49:31.655Z,1226.25
2022-09-20T10:50:31.659Z,1119.38
2022-09-20T10:51:31.649Z,1113.75
2022-09-20T10:52:31.696Z,922.50
2022-09-20T10:53:31.665Z,731.25
2022-09-20T10:54:31.660Z,635.62
2022-09-20T10:55:31.678Z,579.38
2022-09-20T10:56:31.684Z,556.88
2022-09-20T10:57:31.700Z,534.38
2022-09-20T10:58:31.612Z,506.25
2022-09-20T10:59:31.593Z,534.38
2022-09-20T11:00:31.613Z,590.62
2022-09-20T11:01:31.660Z,601.88
2022-09-20T11:02:31.607Z,630.00
2022-09-20T11:03:31.979Z,658.12
2022-09-20T11:04:31.650Z,776.25
2022-09-20T11:05:31.566Z,950.62
2022-09-20T11:06:31.592Z,1085.62
2022-09-20T11:07:32.680Z,1552.50
2022-09-20T11:08:31.522Z,1001.25
2022-09-20T11:09:31.509Z,1445.62
2022-09-20T11:10:31.530Z,1018.12
2022-09-20T11:11:31.543Z,1006.88
2022-09-20T11:12:31.496Z,2137.50
2022-09-20T11:13:31.511Z,2250.00
2022-09-20T11:14:31.499Z,2306.25
2022-09-20T11:15:31.494Z,2356.88
2022-09-20T11:16:31.894Z,1929.38
2022-09-20T11:17:31.485Z,956.25
2022-09-20T11:18:31.451Z,1136.25
2022-09-20T11:19:31.471Z,1265.62
2022-09-20T11:20:31.443Z,1186.88
2022-09-20T11:21:31.890Z,1203.75
2022-09-20T11:22:31.440Z,1113.75
2022-09-20T11:23:31.420Z,978.75
2022-09-20T11:24:31.430Z,945.00
2022-09-20T11:25:31.410Z,905.62
2022-09-20T11:26:31.399Z,832.50
2022-09-20T11:27:31.439Z,736.88
2022-09-20T11:28:31.417Z,596.25
2022-09-20T11:29:31.391Z,500.62
2022-09-20T11:30:31.403Z,433.12
2022-09-20T11:31:31.429Z,399.38
2022-09-20T11:32:31.378Z,399.38
2022-09-20T11:33:31.389Z,405.00
2022-09-20T11:34:31.363Z,438.75
2022-09-20T11:35:31.357Z,466.88
2022-09-20T11:36:31.408Z,500.62
2022-09-20T11:37:31.332Z,511.88
2022-09-20T11:38:31.377Z,517.50
2022-09-20T11:39:31.316Z,540.00
2022-09-20T11:40:31.433Z,545.62
2022-09-20T11:41:32.117Z,523.12
2022-09-20T11:42:31.304Z,500.62
2022-09-20T11:43:31.348Z,511.88
2022-09-20T11:44:31.287Z,534.38
2022-09-20T11:45:31.358Z,540.00
2022-09-20T11:46:31.283Z,551.25
2022-09-20T11:47:53.481Z,523.12
2022-09-20T11:48:32.261Z,483.75
2022-09-20T11:49:31.273Z,450.00
2022-09-20T11:50:31.251Z,450.00
2022-09-20T11:51:31.255Z,433.12
2022-09-20T11:52:31.243Z,478.12
2022-09-20T11:53:36.472Z,523.12
2022-09-20T11:54:32.798Z,517.50
2022-09-20T11:55:31.214Z,511.88
2022-09-20T11:56:31.221Z,540.00
2022-09-20T11:57:31.193Z,556.88
2022-09-20T11:58:31.196Z,568.12
2022-09-20T11:59:31.192Z,601.88
2022-09-20T12:00:31.184Z,562.50
2022-09-20T12:01:31.207Z,534.38
2022-09-20T12:02:38.399Z,523.12
2022-09-20T12:03:31.236Z,511.88
2022-09-20T12:04:33.254Z,523.12
2022-09-20T12:05:31.171Z,545.62
2022-09-20T12:06:31.181Z,585.00
2022-09-20T12:07:31.117Z,669.38
2022-09-20T12:08:31.128Z,759.38
2022-09-20T12:09:31.169Z,787.50
2022-09-20T12:10:31.131Z,916.88
2022-09-20T12:11:31.099Z,1265.62
2022-09-20T12:12:31.083Z,1411.88
2022-09-20T12:13:31.081Z,2334.38
2022-09-20T12:14:31.803Z,1125.00
2022-09-20T12:15:31.083Z,928.12
2022-09-20T12:16:31.101Z,1113.75
2022-09-20T12:17:31.048Z,1046.25
2022-09-20T12:18:31.057Z,1164.38
2022-09-20T12:19:31.141Z,1153.12
2022-09-20T12:20:31.040Z,1226.25
2022-09-20T12:21:31.059Z,2491.88
2022-09-20T12:22:31.030Z,2092.50
2022-09-20T12:23:31.002Z,1462.50
2022-09-20T12:24:31.543Z,2210.62
2022-09-20T12:25:30.994Z,2351.25
2022-09-20T12:26:30.989Z,2334.38
2022-09-20T12:27:31.073Z,2244.38
2022-09-20T12:28:31.001Z,2216.25
2022-09-20T12:29:31.046Z,2295.00
2022-09-20T12:30:30.974Z,1738.12
2022-09-20T12:31:31.074Z,1923.75
2022-09-20T12:32:30.956Z,1440.00
2022-09-20T12:33:30.962Z,1001.25
2022-09-20T12:34:30.928Z,1355.62
2022-09-20T12:35:30.916Z,1305.00
2022-09-20T12:36:30.919Z,911.25
2022-09-20T12:37:30.927Z,888.75
2022-09-20T12:38:31.374Z,911.25
2022-09-20T12:39:31.028Z,967.50
2022-09-20T12:40:30.910Z,1018.12
2022-09-20T12:41:30.885Z,995.62
2022-09-20T12:42:30.921Z,995.62
2022-09-20T12:43:30.857Z,1018.12
2022-09-20T12:44:30.909Z,928.12
2022-09-20T12:45:31.000Z,843.75
2022-09-20T12:46:30.847Z,787.50
2022-09-20T12:47:30.839Z,742.50
2022-09-20T12:48:30.845Z,658.12
2022-09-20T12:49:31.189Z,624.38
2022-09-20T12:50:30.821Z,607.50
2022-09-20T12:51:30.817Z,590.62